sensor_id;sensor_type;location;lat;lon;timestamp;pressure;altitude;pressure_sealevel;temperature;humidity
16777;BME280;8505;49.456;8.164;2023-05-24T00:00:15;100229.09;;;12.71;64.67
16777;BME280;8505;49.456;8.164;2023-05-24T00:02:44;100228.44;;;12.69;64.78
16777;BME280;8505;49.456;8.164;2023-05-24T00:05:11;100227.78;;;12.59;64.29
16777;BME280;8505;49.456;8.164;2023-05-24T00:07:43;100229.16;;;12.86;63.63
16777;BME280;8505;49.456;8.164;2023-05-24T00:10:11;100228.28;;;13.02;63.71
16777;BME280;8505;49.456;8.164;2023-05-24T00:12:39;100226.53;;;12.78;64.03
16777;BME280;8505;49.456;8.164;2023-05-24T00:15:08;100230.97;;;12.54;64.88
16777;BME280;8505;49.456;8.164;2023-05-24T00:17:36;100229.59;;;12.67;64.21
16777;BME280;8505;49.456;8.164;2023-05-24T00:20:08;100219.66;;;12.61;63.92
16777;BME280;8505;49.456;8.164;2023-05-24T00:22:38;100223.38;;;12.82;63.58
16777;BME280;8505;49.456;8.164;2023-05-24T00:25:08;100221.31;;;12.62;64.22
16777;BME280;8505;49.456;8.164;2023-05-24T00:27:36;100223.44;;;12.66;63.80
16777;BME280;8505;49.456;8.164;2023-05-24T00:30:06;100212.66;;;12.68;64.15
16777;BME280;8505;49.456;8.164;2023-05-24T00:32:33;100213.84;;;12.65;64.50
16777;BME280;8505;49.456;8.164;2023-05-24T00:35:02;100204.94;;;12.42;64.57
16777;BME280;8505;49.456;8.164;2023-05-24T00:37:30;100202.25;;;12.50;64.01
16777;BME280;8505;49.456;8.164;2023-05-24T00:39:58;100205.19;;;12.71;63.33
16777;BME280;8505;49.456;8.164;2023-05-24T00:42:27;100201.34;;;12.66;63.15
16777;BME280;8505;49.456;8.164;2023-05-24T00:44:54;100200.31;;;12.44;64.45
16777;BME280;8505;49.456;8.164;2023-05-24T00:47:22;100193.78;;;12.54;63.68
16777;BME280;8505;49.456;8.164;2023-05-24T00:49:51;100197.94;;;12.02;64.87
16777;BME280;8505;49.456;8.164;2023-05-24T00:52:19;100191.28;;;12.14;64.52
16777;BME280;8505;49.456;8.164;2023-05-24T00:54:47;100184.28;;;12.60;63.80
16777;BME280;8505;49.456;8.164;2023-05-24T00:57:15;100177.84;;;12.15;64.40
16777;BME280;8505;49.456;8.164;2023-05-24T00:59:45;100181.44;;;12.23;64.52
16777;BME280;8505;49.456;8.164;2023-05-24T01:02:13;100185.13;;;12.13;64.11
16777;BME280;8505;49.456;8.164;2023-05-24T01:04:42;100185.31;;;12.04;64.22
16777;BME280;8505;49.456;8.164;2023-05-24T01:07:16;100182.00;;;12.02;64.40
16777;BME280;8505;49.456;8.164;2023-05-24T01:10:02;100184.66;;;12.02;64.57
16777;BME280;8505;49.456;8.164;2023-05-24T01:12:38;100187.66;;;11.99;64.75
16777;BME280;8505;49.456;8.164;2023-05-24T01:15:18;100192.94;;;12.07;64.57
16777;BME280;8505;49.456;8.164;2023-05-24T01:17:53;100191.13;;;12.07;64.77
16777;BME280;8505;49.456;8.164;2023-05-24T01:20:28;100197.25;;;12.08;64.71
16777;BME280;8505;49.456;8.164;2023-05-24T01:23:20;100194.31;;;11.87;64.58
16777;BME280;8505;49.456;8.164;2023-05-24T01:26:06;100193.97;;;11.90;65.47
16777;BME280;8505;49.456;8.164;2023-05-24T01:28:41;100190.19;;;11.76;65.25
16777;BME280;8505;49.456;8.164;2023-05-24T01:31:10;100200.59;;;11.86;65.19
16777;BME280;8505;49.456;8.164;2023-05-24T01:33:40;100198.13;;;11.76;65.32
16777;BME280;8505;49.456;8.164;2023-05-24T01:36:08;100193.00;;;11.66;65.66
16777;BME280;8505;49.456;8.164;2023-05-24T01:38:37;100205.25;;;11.59;65.69
16777;BME280;8505;49.456;8.164;2023-05-24T01:41:17;100206.72;;;11.62;65.57
16777;BME280;8505;49.456;8.164;2023-05-24T01:43:52;100200.44;;;11.79;65.43
16777;BME280;8505;49.456;8.164;2023-05-24T01:46:28;100208.41;;;11.95;65.27
16777;BME280;8505;49.456;8.164;2023-05-24T01:49:08;100204.09;;;11.70;65.36
16777;BME280;8505;49.456;8.164;2023-05-24T01:51:40;100220.03;;;11.54;65.83
16777;BME280;8505;49.456;8.164;2023-05-24T01:54:11;100216.50;;;11.61;65.15
16777;BME280;8505;49.456;8.164;2023-05-24T01:56:41;100222.00;;;11.52;65.74
16777;BME280;8505;49.456;8.164;2023-05-24T01:59:12;100217.84;;;11.65;65.25
16777;BME280;8505;49.456;8.164;2023-05-24T02:01:41;100220.34;;;11.59;64.91
16777;BME280;8505;49.456;8.164;2023-05-24T02:04:09;100212.53;;;11.57;65.43
16777;BME280;8505;49.456;8.164;2023-05-24T02:06:37;100206.75;;;11.70;65.46
16777;BME280;8505;49.456;8.164;2023-05-24T02:09:05;100221.03;;;11.77;64.53
16777;BME280;8505;49.456;8.164;2023-05-24T02:11:33;100220.66;;;11.64;64.54
16777;BME280;8505;49.456;8.164;2023-05-24T02:14:01;100224.97;;;11.73;65.06
16777;BME280;8505;49.456;8.164;2023-05-24T02:16:30;100224.69;;;11.76;64.33
16777;BME280;8505;49.456;8.164;2023-05-24T02:18:58;100225.31;;;11.62;64.80
16777;BME280;8505;49.456;8.164;2023-05-24T02:21:26;100232.63;;;11.60;65.03
16777;BME280;8505;49.456;8.164;2023-05-24T02:23:54;100231.75;;;11.27;65.85
16777;BME280;8505;49.456;8.164;2023-05-24T02:26:22;100237.38;;;11.16;66.32
16777;BME280;8505;49.456;8.164;2023-05-24T02:28:50;100231.94;;;11.42;65.26
16777;BME280;8505;49.456;8.164;2023-05-24T02:31:18;100224.63;;;11.44;65.57
16777;BME280;8505;49.456;8.164;2023-05-24T02:33:48;100224.31;;;11.39;65.25
16777;BME280;8505;49.456;8.164;2023-05-24T02:36:16;100235.03;;;11.13;66.67
16777;BME280;8505;49.456;8.164;2023-05-24T02:38:44;100224.47;;;11.45;65.34
16777;BME280;8505;49.456;8.164;2023-05-24T02:41:12;100225.47;;;11.44;65.52
16777;BME280;8505;49.456;8.164;2023-05-24T02:43:43;100228.78;;;11.46;65.88
16777;BME280;8505;49.456;8.164;2023-05-24T02:46:11;100228.63;;;11.56;65.69
16777;BME280;8505;49.456;8.164;2023-05-24T02:48:39;100229.19;;;10.93;67.45
16777;BME280;8505;49.456;8.164;2023-05-24T02:51:09;100228.59;;;11.23;66.06
16777;BME280;8505;49.456;8.164;2023-05-24T02:53:36;100223.81;;;11.67;65.25
16777;BME280;8505;49.456;8.164;2023-05-24T02:56:04;100222.00;;;11.35;66.26
16777;BME280;8505;49.456;8.164;2023-05-24T02:58:32;100221.16;;;11.35;65.69
16777;BME280;8505;49.456;8.164;2023-05-24T03:01:06;100224.31;;;11.39;65.85
16777;BME280;8505;49.456;8.164;2023-05-24T03:03:34;100227.28;;;11.27;66.15
16777;BME280;8505;49.456;8.164;2023-05-24T03:06:02;100214.81;;;11.12;66.29
16777;BME280;8505;49.456;8.164;2023-05-24T03:08:31;100221.81;;;11.45;65.44
16777;BME280;8505;49.456;8.164;2023-05-24T03:10:59;100223.31;;;11.40;65.77
16777;BME280;8505;49.456;8.164;2023-05-24T03:13:27;100234.03;;;11.06;66.64
16777;BME280;8505;49.456;8.164;2023-05-24T03:15:54;100223.63;;;11.20;66.50
16777;BME280;8505;49.456;8.164;2023-05-24T03:18:22;100225.94;;;11.15;66.21
16777;BME280;8505;49.456;8.164;2023-05-24T03:20:50;100222.97;;;11.43;65.61
16777;BME280;8505;49.456;8.164;2023-05-24T03:23:18;100229.56;;;11.14;66.36
16777;BME280;8505;49.456;8.164;2023-05-24T03:25:47;100235.88;;;11.13;66.36
16777;BME280;8505;49.456;8.164;2023-05-24T03:28:15;100233.19;;;10.97;66.58
16777;BME280;8505;49.456;8.164;2023-05-24T03:30:43;100233.19;;;11.05;66.44
16777;BME280;8505;49.456;8.164;2023-05-24T03:33:11;100234.31;;;10.94;66.83
16777;BME280;8505;49.456;8.164;2023-05-24T03:35:38;100229.00;;;10.86;66.99
16777;BME280;8505;49.456;8.164;2023-05-24T03:38:06;100232.13;;;10.74;67.91
16777;BME280;8505;49.456;8.164;2023-05-24T03:40:34;100228.41;;;10.59;67.65
16777;BME280;8505;49.456;8.164;2023-05-24T03:43:03;100231.50;;;10.80;67.79
16777;BME280;8505;49.456;8.164;2023-05-24T03:45:31;100231.28;;;10.73;67.51
16777;BME280;8505;49.456;8.164;2023-05-24T03:48:05;100230.91;;;10.68;67.63
16777;BME280;8505;49.456;8.164;2023-05-24T03:50:33;100234.25;;;10.70;68.09
16777;BME280;8505;49.456;8.164;2023-05-24T03:53:01;100229.81;;;10.79;67.92
16777;BME280;8505;49.456;8.164;2023-05-24T03:55:29;100237.28;;;10.83;67.53
16777;BME280;8505;49.456;8.164;2023-05-24T03:57:56;100235.88;;;10.63;68.21
16777;BME280;8505;49.456;8.164;2023-05-24T04:00:26;100239.94;;;10.41;68.42
16777;BME280;8505;49.456;8.164;2023-05-24T04:02:53;100239.53;;;10.70;67.38
16777;BME280;8505;49.456;8.164;2023-05-24T04:05:22;100238.59;;;10.79;67.09
16777;BME280;8505;49.456;8.164;2023-05-24T04:07:52;100234.47;;;10.43;67.73
16777;BME280;8505;49.456;8.164;2023-05-24T04:10:20;100233.91;;;10.65;67.08
16777;BME280;8505;49.456;8.164;2023-05-24T04:12:48;100240.91;;;10.40;67.56
16777;BME280;8505;49.456;8.164;2023-05-24T04:15:16;100240.13;;;10.48;67.66
16777;BME280;8505;49.456;8.164;2023-05-24T04:17:45;100244.53;;;10.73;66.84
16777;BME280;8505;49.456;8.164;2023-05-24T04:20:14;100239.69;;;10.61;66.96
16777;BME280;8505;49.456;8.164;2023-05-24T04:22:42;100245.13;;;10.59;66.82
16777;BME280;8505;49.456;8.164;2023-05-24T04:25:09;100244.47;;;10.31;67.38
16777;BME280;8505;49.456;8.164;2023-05-24T04:27:37;100243.50;;;10.32;67.62
16777;BME280;8505;49.456;8.164;2023-05-24T04:30:06;100250.16;;;10.36;67.36
16777;BME280;8505;49.456;8.164;2023-05-24T04:32:34;100234.81;;;10.48;67.15
16777;BME280;8505;49.456;8.164;2023-05-24T04:35:04;100233.47;;;10.44;67.60
16777;BME280;8505;49.456;8.164;2023-05-24T04:37:32;100238.66;;;10.62;66.99
16777;BME280;8505;49.456;8.164;2023-05-24T04:40:00;100229.09;;;10.61;66.74
16777;BME280;8505;49.456;8.164;2023-05-24T04:42:29;100239.69;;;10.61;66.85
16777;BME280;8505;49.456;8.164;2023-05-24T04:44:57;100242.03;;;10.30;67.60
16777;BME280;8505;49.456;8.164;2023-05-24T04:47:26;100241.50;;;10.60;67.07
16777;BME280;8505;49.456;8.164;2023-05-24T04:49:53;100249.66;;;10.67;66.90
16777;BME280;8505;49.456;8.164;2023-05-24T04:52:23;100247.19;;;10.39;67.01
16777;BME280;8505;49.456;8.164;2023-05-24T04:54:51;100249.84;;;10.39;67.58
16777;BME280;8505;49.456;8.164;2023-05-24T04:57:20;100250.94;;;10.63;67.18
16777;BME280;8505;49.456;8.164;2023-05-24T04:59:48;100259.94;;;10.44;66.89
16777;BME280;8505;49.456;8.164;2023-05-24T05:02:16;100252.44;;;10.65;67.20
16777;BME280;8505;49.456;8.164;2023-05-24T05:04:44;100253.56;;;10.54;66.94
16777;BME280;8505;49.456;8.164;2023-05-24T05:07:11;100253.44;;;10.64;67.22
16777;BME280;8505;49.456;8.164;2023-05-24T05:09:40;100257.50;;;10.92;65.91
16777;BME280;8505;49.456;8.164;2023-05-24T05:12:10;100264.00;;;11.06;65.26
16777;BME280;8505;49.456;8.164;2023-05-24T05:14:38;100256.69;;;10.92;65.80
16777;BME280;8505;49.456;8.164;2023-05-24T05:17:05;100258.28;;;10.77;66.57
16777;BME280;8505;49.456;8.164;2023-05-24T05:19:34;100270.66;;;11.10;65.75
16777;BME280;8505;49.456;8.164;2023-05-24T05:22:02;100268.72;;;11.28;64.70
16777;BME280;8505;49.456;8.164;2023-05-24T05:24:29;100261.44;;;11.63;63.68
16777;BME280;8505;49.456;8.164;2023-05-24T05:26:59;100256.97;;;11.47;62.93
16777;BME280;8505;49.456;8.164;2023-05-24T05:29:27;100266.28;;;12.08;61.54
16777;BME280;8505;49.456;8.164;2023-05-24T05:31:54;100264.47;;;11.92;61.65
16777;BME280;8505;49.456;8.164;2023-05-24T05:34:22;100268.25;;;12.14;61.41
16777;BME280;8505;49.456;8.164;2023-05-24T05:36:50;100269.44;;;11.71;61.88
16777;BME280;8505;49.456;8.164;2023-05-24T05:39:18;100273.19;;;11.44;63.00
16777;BME280;8505;49.456;8.164;2023-05-24T05:41:45;100269.75;;;11.92;61.54
16777;BME280;8505;49.456;8.164;2023-05-24T05:44:14;100276.19;;;11.33;62.60
16777;BME280;8505;49.456;8.164;2023-05-24T05:46:42;100278.03;;;11.41;62.36
16777;BME280;8505;49.456;8.164;2023-05-24T05:49:12;100270.44;;;11.94;61.44
16777;BME280;8505;49.456;8.164;2023-05-24T05:51:40;100267.78;;;11.86;61.39
16777;BME280;8505;49.456;8.164;2023-05-24T05:54:08;100270.88;;;11.49;61.79
16777;BME280;8505;49.456;8.164;2023-05-24T05:56:42;100273.75;;;11.88;61.57
16777;BME280;8505;49.456;8.164;2023-05-24T05:59:14;100275.41;;;11.89;61.28
16777;BME280;8505;49.456;8.164;2023-05-24T06:01:43;100274.84;;;12.42;60.19
16777;BME280;8505;49.456;8.164;2023-05-24T06:04:12;100287.06;;;12.68;59.42
16777;BME280;8505;49.456;8.164;2023-05-24T06:06:40;100278.91;;;12.77;58.13
16777;BME280;8505;49.456;8.164;2023-05-24T06:09:09;100286.94;;;13.00;57.85
16777;BME280;8505;49.456;8.164;2023-05-24T06:11:38;100286.53;;;12.72;60.02
16777;BME280;8505;49.456;8.164;2023-05-24T06:14:10;100288.75;;;13.00;58.89
16777;BME280;8505;49.456;8.164;2023-05-24T06:16:40;100282.63;;;13.30;58.86
16777;BME280;8505;49.456;8.164;2023-05-24T06:19:09;100289.53;;;12.69;59.58
16777;BME280;8505;49.456;8.164;2023-05-24T06:21:36;100288.25;;;13.35;57.44
16777;BME280;8505;49.456;8.164;2023-05-24T06:24:06;100287.84;;;13.46;57.73
16777;BME280;8505;49.456;8.164;2023-05-24T06:26:35;100287.19;;;12.82;57.55
16777;BME280;8505;49.456;8.164;2023-05-24T06:29:03;100283.69;;;13.21;56.79
16777;BME280;8505;49.456;8.164;2023-05-24T06:31:31;100289.81;;;13.75;55.71
16777;BME280;8505;49.456;8.164;2023-05-24T06:34:01;100293.16;;;13.46;56.02
16777;BME280;8505;49.456;8.164;2023-05-24T06:36:31;100292.13;;;13.55;55.37
16777;BME280;8505;49.456;8.164;2023-05-24T06:39:01;100292.41;;;13.83;55.31
16777;BME280;8505;49.456;8.164;2023-05-24T06:41:29;100283.44;;;14.36;53.99
16777;BME280;8505;49.456;8.164;2023-05-24T06:43:57;100304.31;;;13.72;53.08
16777;BME280;8505;49.456;8.164;2023-05-24T06:46:25;100293.69;;;14.10;53.99
16777;BME280;8505;49.456;8.164;2023-05-24T06:48:53;100306.38;;;13.62;52.99
16777;BME280;8505;49.456;8.164;2023-05-24T06:51:22;100316.53;;;14.04;52.45
16777;BME280;8505;49.456;8.164;2023-05-24T06:53:50;100300.50;;;14.12;51.62
16777;BME280;8505;49.456;8.164;2023-05-24T06:56:18;100302.56;;;14.02;51.42
16777;BME280;8505;49.456;8.164;2023-05-24T06:58:46;100307.53;;;13.83;51.80
16777;BME280;8505;49.456;8.164;2023-05-24T07:01:14;100299.28;;;14.15;50.88
16777;BME280;8505;49.456;8.164;2023-05-24T07:03:42;100297.16;;;14.77;48.26
16777;BME280;8505;49.456;8.164;2023-05-24T07:06:10;100305.06;;;14.71;49.01
16777;BME280;8505;49.456;8.164;2023-05-24T07:08:41;100306.03;;;13.88;50.35
16777;BME280;8505;49.456;8.164;2023-05-24T07:11:09;100309.00;;;13.40;51.14
16777;BME280;8505;49.456;8.164;2023-05-24T07:13:37;100309.25;;;14.36;49.97
16777;BME280;8505;49.456;8.164;2023-05-24T07:16:05;100306.81;;;14.11;49.12
16777;BME280;8505;49.456;8.164;2023-05-24T07:18:33;100316.91;;;14.39;48.98
16777;BME280;8505;49.456;8.164;2023-05-24T07:21:01;100322.88;;;13.81;51.77
16777;BME280;8505;49.456;8.164;2023-05-24T07:23:29;100324.25;;;14.37;49.72
16777;BME280;8505;49.456;8.164;2023-05-24T07:25:59;100322.09;;;14.99;49.00
16777;BME280;8505;49.456;8.164;2023-05-24T07:28:27;100319.88;;;14.58;49.61
16777;BME280;8505;49.456;8.164;2023-05-24T07:30:55;100315.38;;;14.74;50.33
16777;BME280;8505;49.456;8.164;2023-05-24T07:33:22;100313.44;;;14.82;49.90
16777;BME280;8505;49.456;8.164;2023-05-24T07:35:50;100316.59;;;14.19;50.64
16777;BME280;8505;49.456;8.164;2023-05-24T07:38:19;100317.75;;;14.54;49.32
16777;BME280;8505;49.456;8.164;2023-05-24T07:40:47;100311.94;;;15.24;47.95
16777;BME280;8505;49.456;8.164;2023-05-24T07:43:17;100309.09;;;15.47;47.72
16777;BME280;8505;49.456;8.164;2023-05-24T07:45:45;100304.44;;;15.34;48.49
16777;BME280;8505;49.456;8.164;2023-05-24T07:48:13;100303.22;;;15.01;48.45
16777;BME280;8505;49.456;8.164;2023-05-24T07:50:41;100304.69;;;14.88;48.83
16777;BME280;8505;49.456;8.164;2023-05-24T07:53:14;100309.28;;;15.24;47.78
16777;BME280;8505;49.456;8.164;2023-05-24T07:55:44;100308.38;;;14.58;49.13
16777;BME280;8505;49.456;8.164;2023-05-24T07:58:12;100308.03;;;14.61;48.39
16777;BME280;8505;49.456;8.164;2023-05-24T08:00:41;100305.19;;;14.63;47.67
16777;BME280;8505;49.456;8.164;2023-05-24T08:03:09;100311.69;;;14.60;47.41
16777;BME280;8505;49.456;8.164;2023-05-24T08:05:40;100303.19;;;15.66;45.24
16777;BME280;8505;49.456;8.164;2023-05-24T08:08:08;100297.19;;;15.64;45.52
16777;BME280;8505;49.456;8.164;2023-05-24T08:10:37;100299.22;;;15.26;46.13
16777;BME280;8505;49.456;8.164;2023-05-24T08:13:05;100308.13;;;15.33;45.64
16777;BME280;8505;49.456;8.164;2023-05-24T08:15:33;100296.13;;;15.44;46.92
16777;BME280;8505;49.456;8.164;2023-05-24T08:18:02;100304.09;;;15.73;45.62
16777;BME280;8505;49.456;8.164;2023-05-24T08:20:30;100291.09;;;15.91;43.56
16777;BME280;8505;49.456;8.164;2023-05-24T08:23:01;100300.56;;;15.94;43.98
16777;BME280;8505;49.456;8.164;2023-05-24T08:25:29;100296.31;;;15.78;42.87
16777;BME280;8505;49.456;8.164;2023-05-24T08:27:57;100296.03;;;15.01;45.16
16777;BME280;8505;49.456;8.164;2023-05-24T08:30:25;100292.56;;;15.72;43.37
16777;BME280;8505;49.456;8.164;2023-05-24T08:32:53;100289.41;;;16.39;42.73
16777;BME280;8505;49.456;8.164;2023-05-24T08:35:22;100293.78;;;16.19;42.87
16777;BME280;8505;49.456;8.164;2023-05-24T08:37:50;100294.31;;;16.36;42.47
16777;BME280;8505;49.456;8.164;2023-05-24T08:40:18;100293.22;;;17.47;39.72
16777;BME280;8505;49.456;8.164;2023-05-24T08:42:46;100303.28;;;16.84;40.68
16777;BME280;8505;49.456;8.164;2023-05-24T08:45:16;100303.88;;;16.24;40.44
16777;BME280;8505;49.456;8.164;2023-05-24T08:47:45;100316.44;;;17.26;37.42
16777;BME280;8505;49.456;8.164;2023-05-24T08:50:14;100314.09;;;17.10;39.04
16777;BME280;8505;49.456;8.164;2023-05-24T08:52:44;100321.88;;;16.08;40.60
16777;BME280;8505;49.456;8.164;2023-05-24T08:55:13;100318.97;;;16.31;41.08
16777;BME280;8505;49.456;8.164;2023-05-24T08:57:42;100322.22;;;16.05;39.32
16777;BME280;8505;49.456;8.164;2023-05-24T09:00:13;100332.91;;;16.05;39.36
16777;BME280;8505;49.456;8.164;2023-05-24T09:02:42;100316.53;;;16.98;38.32
16777;BME280;8505;49.456;8.164;2023-05-24T09:05:12;100324.28;;;16.87;38.97
16777;BME280;8505;49.456;8.164;2023-05-24T09:07:44;100316.94;;;16.61;39.09
16777;BME280;8505;49.456;8.164;2023-05-24T09:10:13;100320.78;;;17.27;36.84
16777;BME280;8505;49.456;8.164;2023-05-24T09:12:44;100329.84;;;16.57;38.22
16777;BME280;8505;49.456;8.164;2023-05-24T09:15:12;100327.16;;;16.30;38.29
16777;BME280;8505;49.456;8.164;2023-05-24T09:17:40;100320.59;;;16.88;38.71
16777;BME280;8505;49.456;8.164;2023-05-24T09:20:08;100323.81;;;16.77;39.41
16777;BME280;8505;49.456;8.164;2023-05-24T09:22:40;100321.16;;;17.24;40.00
16777;BME280;8505;49.456;8.164;2023-05-24T09:25:12;100316.28;;;16.93;38.81
16777;BME280;8505;49.456;8.164;2023-05-24T09:27:41;100314.03;;;16.90;38.38
16777;BME280;8505;49.456;8.164;2023-05-24T09:30:13;100315.91;;;16.96;37.36
16777;BME280;8505;49.456;8.164;2023-05-24T09:32:53;100309.09;;;16.94;38.07
16777;BME280;8505;49.456;8.164;2023-05-24T09:35:21;100304.56;;;17.49;36.71
16777;BME280;8505;49.456;8.164;2023-05-24T09:37:49;100301.06;;;17.48;36.83
16777;BME280;8505;49.456;8.164;2023-05-24T09:40:22;100297.72;;;17.33;36.45
16777;BME280;8505;49.456;8.164;2023-05-24T09:43:02;100299.63;;;16.98;35.56
16777;BME280;8505;49.456;8.164;2023-05-24T09:45:29;100305.94;;;16.77;37.85
16777;BME280;8505;49.456;8.164;2023-05-24T09:48:02;100298.97;;;16.55;39.15
16777;BME280;8505;49.456;8.164;2023-05-24T09:50:30;100299.31;;;16.73;38.64
16777;BME280;8505;49.456;8.164;2023-05-24T09:52:58;100303.25;;;16.77;39.47
16777;BME280;8505;49.456;8.164;2023-05-24T09:55:28;100302.22;;;17.19;39.10
16777;BME280;8505;49.456;8.164;2023-05-24T09:58:01;100305.84;;;17.05;39.35
16777;BME280;8505;49.456;8.164;2023-05-24T10:00:33;100299.69;;;16.42;40.30
16777;BME280;8505;49.456;8.164;2023-05-24T10:03:03;100291.16;;;16.53;40.55
16777;BME280;8505;49.456;8.164;2023-05-24T10:05:33;100288.91;;;16.91;40.88
16777;BME280;8505;49.456;8.164;2023-05-24T10:08:02;100287.63;;;17.35;39.11
16777;BME280;8505;49.456;8.164;2023-05-24T10:10:33;100287.34;;;16.35;41.24
16777;BME280;8505;49.456;8.164;2023-05-24T10:13:01;100285.28;;;15.88;43.62
16777;BME280;8505;49.456;8.164;2023-05-24T10:15:29;100294.72;;;16.61;43.13
16777;BME280;8505;49.456;8.164;2023-05-24T10:17:57;100294.97;;;17.81;39.84
16777;BME280;8505;49.456;8.164;2023-05-24T10:20:26;100294.25;;;16.57;41.29
16777;BME280;8505;49.456;8.164;2023-05-24T10:22:58;100293.13;;;17.74;40.05
16777;BME280;8505;49.456;8.164;2023-05-24T10:25:28;100289.22;;;18.23;38.59
16777;BME280;8505;49.456;8.164;2023-05-24T10:28:01;100284.47;;;18.05;38.82
16777;BME280;8505;49.456;8.164;2023-05-24T10:30:33;100290.75;;;17.38;39.98
16777;BME280;8505;49.456;8.164;2023-05-24T10:33:04;100294.56;;;17.16;39.74
16777;BME280;8505;49.456;8.164;2023-05-24T10:35:35;100279.75;;;18.14;38.18
16777;BME280;8505;49.456;8.164;2023-05-24T10:38:04;100284.66;;;18.43;37.73
16777;BME280;8505;49.456;8.164;2023-05-24T10:40:33;100285.00;;;18.86;36.54
16777;BME280;8505;49.456;8.164;2023-05-24T10:43:04;100290.22;;;17.69;36.92
16777;BME280;8505;49.456;8.164;2023-05-24T10:45:35;100279.31;;;17.84;37.44
16777;BME280;8505;49.456;8.164;2023-05-24T10:48:07;100272.72;;;18.13;38.07
16777;BME280;8505;49.456;8.164;2023-05-24T10:50:36;100260.91;;;18.60;38.05
16777;BME280;8505;49.456;8.164;2023-05-24T10:53:11;100261.50;;;19.20;36.50
16777;BME280;8505;49.456;8.164;2023-05-24T10:55:55;100257.72;;;18.83;38.46
16777;BME280;8505;49.456;8.164;2023-05-24T10:58:43;100264.25;;;19.13;37.83
16777;BME280;8505;49.456;8.164;2023-05-24T11:01:13;100263.53;;;18.80;38.24
16777;BME280;8505;49.456;8.164;2023-05-24T11:03:41;100247.97;;;19.39;37.60
16777;BME280;8505;49.456;8.164;2023-05-24T11:06:08;100255.25;;;19.64;38.29
16777;BME280;8505;49.456;8.164;2023-05-24T11:08:39;100256.00;;;19.39;37.93
16777;BME280;8505;49.456;8.164;2023-05-24T11:11:10;100249.56;;;18.58;37.89
16777;BME280;8505;49.456;8.164;2023-05-24T11:13:46;100253.47;;;18.69;38.91
16777;BME280;8505;49.456;8.164;2023-05-24T11:16:32;100253.97;;;19.35;38.19
16777;BME280;8505;49.456;8.164;2023-05-24T11:19:10;100243.63;;;19.38;37.23
16777;BME280;8505;49.456;8.164;2023-05-24T11:21:39;100245.97;;;19.28;37.84
16777;BME280;8505;49.456;8.164;2023-05-24T11:24:07;100245.69;;;19.05;37.71
16777;BME280;8505;49.456;8.164;2023-05-24T11:26:36;100236.38;;;19.46;37.64
16777;BME280;8505;49.456;8.164;2023-05-24T11:29:07;100243.63;;;20.19;35.18
16777;BME280;8505;49.456;8.164;2023-05-24T11:31:35;100241.03;;;19.88;36.57
16777;BME280;8505;49.456;8.164;2023-05-24T11:34:10;100245.00;;;18.45;39.02
16777;BME280;8505;49.456;8.164;2023-05-24T11:36:37;100242.50;;;19.59;37.18
16777;BME280;8505;49.456;8.164;2023-05-24T11:39:07;100235.34;;;18.51;38.36
16777;BME280;8505;49.456;8.164;2023-05-24T11:41:36;100235.28;;;19.15;36.87
16777;BME280;8505;49.456;8.164;2023-05-24T11:44:08;100222.91;;;19.14;37.20
16777;BME280;8505;49.456;8.164;2023-05-24T11:46:37;100221.56;;;19.93;35.98
16777;BME280;8505;49.456;8.164;2023-05-24T11:49:05;100226.38;;;20.70;34.51
16777;BME280;8505;49.456;8.164;2023-05-24T11:51:34;100225.31;;;19.29;36.21
16777;BME280;8505;49.456;8.164;2023-05-24T11:54:03;100236.44;;;18.94;37.15
16777;BME280;8505;49.456;8.164;2023-05-24T11:56:31;100233.16;;;19.93;35.42
16777;BME280;8505;49.456;8.164;2023-05-24T11:59:12;100231.84;;;19.71;36.10
16777;BME280;8505;49.456;8.164;2023-05-24T12:01:41;100217.34;;;20.22;35.05
16777;BME280;8505;49.456;8.164;2023-05-24T12:04:10;100219.06;;;19.35;36.00
16777;BME280;8505;49.456;8.164;2023-05-24T12:06:41;100223.97;;;20.44;34.85
16777;BME280;8505;49.456;8.164;2023-05-24T12:09:10;100215.28;;;20.24;34.25
16777;BME280;8505;49.456;8.164;2023-05-24T12:11:40;100222.44;;;20.11;33.67
16777;BME280;8505;49.456;8.164;2023-05-24T12:14:14;100210.25;;;19.84;34.41
16777;BME280;8505;49.456;8.164;2023-05-24T12:16:44;100207.25;;;20.60;32.71
16777;BME280;8505;49.456;8.164;2023-05-24T12:19:15;100215.19;;;20.30;33.03
16777;BME280;8505;49.456;8.164;2023-05-24T12:21:59;100210.59;;;20.12;34.06
16777;BME280;8505;49.456;8.164;2023-05-24T12:24:27;100216.97;;;20.43;32.82
16777;BME280;8505;49.456;8.164;2023-05-24T12:26:59;100217.41;;;20.15;33.33
16777;BME280;8505;49.456;8.164;2023-05-24T12:29:33;100217.59;;;19.01;35.49
16777;BME280;8505;49.456;8.164;2023-05-24T12:32:02;100214.88;;;19.46;34.70
16777;BME280;8505;49.456;8.164;2023-05-24T12:34:31;100210.50;;;20.01;34.36
16777;BME280;8505;49.456;8.164;2023-05-24T12:36:59;100217.09;;;20.05;32.87
16777;BME280;8505;49.456;8.164;2023-05-24T12:39:28;100202.38;;;20.07;32.83
16777;BME280;8505;49.456;8.164;2023-05-24T12:42:00;100199.22;;;19.92;33.36
16777;BME280;8505;49.456;8.164;2023-05-24T12:44:30;100204.19;;;20.32;34.05
16777;BME280;8505;49.456;8.164;2023-05-24T12:47:01;100207.13;;;20.12;34.52
16777;BME280;8505;49.456;8.164;2023-05-24T12:49:30;100198.34;;;19.73;34.67
16777;BME280;8505;49.456;8.164;2023-05-24T12:51:58;100194.84;;;19.98;34.84
16777;BME280;8505;49.456;8.164;2023-05-24T12:54:27;100206.50;;;20.53;33.65
16777;BME280;8505;49.456;8.164;2023-05-24T12:56:56;100183.31;;;20.52;32.14
16777;BME280;8505;49.456;8.164;2023-05-24T12:59:26;100178.75;;;19.91;33.89
16777;BME280;8505;49.456;8.164;2023-05-24T13:01:55;100195.22;;;20.19;32.97
16777;BME280;8505;49.456;8.164;2023-05-24T13:04:24;100185.47;;;20.00;31.95
16777;BME280;8505;49.456;8.164;2023-05-24T13:06:53;100186.22;;;20.50;32.48
16777;BME280;8505;49.456;8.164;2023-05-24T13:09:21;100180.25;;;20.48;31.72
16777;BME280;8505;49.456;8.164;2023-05-24T13:11:51;100187.09;;;19.83;32.70